Time;durP1;ratioP1;P1;durP2;ratioP2;P2;SDS_P1;SDS_P2;PMS_P1;PMS_P2;Temp;Humidity;BMP_temperature;BMP_pressure;BME280_temperature;BME280_humidity;BME280_pressure;Samples;Min_cycle;Max_cycle;Signal;HPM_P1;HPM_P2
2023/04/21 00:01:46;;;;;;;35.40;18.65;;;;;;;;;;5031408;28;20025;-64
2023/04/21 00:04:12;;;;;;;44.35;20.48;;;;;;;;;;5032045;28;20131;-64
2023/04/21 00:06:40;;;;;;;51.80;25.33;;;;;;;;;;5023191;28;20014;-66
2023/04/21 00:09:05;;;;;;;43.33;19.07;;;;;;;;;;5019580;28;20083;-64
2023/04/21 00:11:30;;;;;;;38.53;20.50;;;;;;;;;;5031460;28;20009;-64
2023/04/21 00:13:56;;;;;;;47.88;21.38;;;;;;;;;;5031623;28;20454;-64
2023/04/21 00:16:21;;;;;;;38.42;18.90;;;;;;;;;;5031987;28;20013;-63
2023/04/21 00:18:46;;;;;;;47.10;21.30;;;;;;;;;;5032602;28;20029;-63
2023/04/21 00:21:12;;;;;;;44.63;22.55;;;;;;;;;;5032066;28;20026;-64
2023/04/21 00:23:37;;;;;;;49.03;21.48;;;;;;;;;;5031466;28;20021;-63
2023/04/21 00:26:02;;;;;;;39.22;20.65;;;;;;;;;;5032322;28;20071;-64
2023/04/21 00:28:28;;;;;;;43.78;20.52;;;;;;;;;;5030578;28;20119;-63
2023/04/21 00:30:53;;;;;;;43.10;22.05;;;;;;;;;;5047117;28;20024;-65
2023/04/21 00:33:18;;;;;;;40.88;21.85;;;;;;;;;;5031206;28;20558;-63
2023/04/21 00:35:43;;;;;;;49.38;21.95;;;;;;;;;;5029983;28;20394;-65
2023/04/21 00:38:09;;;;;;;40.28;21.02;;;;;;;;;;5031102;28;20453;-64
2023/04/21 00:40:34;;;;;;;49.72;21.20;;;;;;;;;;5032035;28;20447;-64
2023/04/21 00:42:59;;;;;;;39.13;20.15;;;;;;;;;;5031670;28;20028;-64
2023/04/21 00:45:25;;;;;;;41.10;21.60;;;;;;;;;;5031105;28;20025;-65
2023/04/21 00:47:51;;;;;;;43.10;21.38;;;;;;;;;;5020543;28;20557;-63
2023/04/21 00:50:16;;;;;;;45.38;20.77;;;;;;;;;;5015533;28;20040;-65
2023/04/21 00:52:42;;;;;;;44.70;22.52;;;;;;;;;;5032402;28;20014;-64
2023/04/21 00:55:08;;;;;;;54.78;23.52;;;;;;;;;;5018399;28;20045;-63
2023/04/21 00:57:35;;;;;;;47.65;23.20;;;;;;;;;;5025003;28;20060;-65
2023/04/21 01:00:00;;;;;;;51.55;21.65;;;;;;;;;;5024838;28;20567;-64
2023/04/21 01:02:27;;;;;;;45.55;23.60;;;;;;;;;;5024950;28;20092;-64
2023/04/21 01:04:52;;;;;;;50.72;23.95;;;;;;;;;;5018140;28;20075;-63
2023/04/21 01:07:17;;;;;;;45.08;21.98;;;;;;;;;;5023001;28;20025;-64
2023/04/21 01:09:43;;;;;;;43.08;22.15;;;;;;;;;;5019492;28;20018;-64
2023/04/21 01:12:11;;;;;;;53.03;23.58;;;;;;;;;;5021901;28;20018;-63
2023/04/21 01:14:37;;;;;;;47.72;21.42;;;;;;;;;;5024464;28;20033;-64
2023/04/21 01:17:05;;;;;;;45.65;22.23;;;;;;;;;;5025304;28;20028;-65
2023/04/21 01:19:31;;;;;;;46.42;23.70;;;;;;;;;;5029313;28;20052;-63
2023/04/21 01:21:59;;;;;;;47.20;22.60;;;;;;;;;;5019096;28;20042;-64
2023/04/21 01:24:33;;;;;;;42.30;22.48;;;;;;;;;;5024117;28;20042;-65
2023/04/21 01:26:58;;;;;;;47.78;24.45;;;;;;;;;;5026704;28;20014;-63
2023/04/21 01:29:24;;;;;;;49.03;22.67;;;;;;;;;;5021868;28;20498;-64
2023/04/21 01:31:49;;;;;;;40.30;22.80;;;;;;;;;;5025119;28;20013;-65
2023/04/21 01:34:15;;;;;;;47.63;23.13;;;;;;;;;;5019180;28;20029;-64
2023/04/21 01:36:40;;;;;;;48.00;22.52;;;;;;;;;;5020151;28;20022;-63
2023/04/21 01:39:05;;;;;;;42.55;22.23;;;;;;;;;;5022741;28;20033;-64
2023/04/21 01:41:30;;;;;;;51.60;24.13;;;;;;;;;;5031160;28;20029;-63
2023/04/21 01:43:56;;;;;;;52.67;22.95;;;;;;;;;;5024135;28;20025;-64
2023/04/21 01:46:21;;;;;;;46.28;23.02;;;;;;;;;;5031616;28;20105;-63
2023/04/21 01:48:46;;;;;;;46.60;23.58;;;;;;;;;;5022270;28;20101;-65
2023/04/21 01:51:11;;;;;;;46.85;23.52;;;;;;;;;;5022637;28;20017;-64
2023/04/21 01:53:37;;;;;;;53.85;23.38;;;;;;;;;;5029581;28;20025;-64
2023/04/21 01:56:02;;;;;;;55.60;25.33;;;;;;;;;;5029894;28;20028;-64
2023/04/21 01:58:27;;;;;;;46.63;22.38;;;;;;;;;;5029498;28;20025;-64
2023/04/21 02:00:52;;;;;;;54.38;22.85;;;;;;;;;;5029188;28;20052;-64
2023/04/21 02:03:17;;;;;;;47.83;21.65;;;;;;;;;;5029716;28;20029;-65
2023/04/21 02:05:43;;;;;;;48.70;23.67;;;;;;;;;;5029654;28;20018;-64
2023/04/21 02:08:08;;;;;;;41.35;22.50;;;;;;;;;;5030032;28;20021;-66
2023/04/21 02:10:33;;;;;;;39.63;21.23;;;;;;;;;;5029760;28;20020;-64
2023/04/21 02:12:59;;;;;;;41.75;22.77;;;;;;;;;;5029115;28;20494;-61
2023/04/21 02:15:25;;;;;;;44.97;22.08;;;;;;;;;;5029358;28;20167;-65
2023/04/21 02:17:50;;;;;;;49.22;21.77;;;;;;;;;;5029615;28;20096;-63
2023/04/21 02:20:15;;;;;;;51.78;22.58;;;;;;;;;;5029604;28;20112;-64
2023/04/21 02:22:40;;;;;;;48.17;21.52;;;;;;;;;;5028187;28;20021;-63
2023/04/21 02:25:06;;;;;;;48.63;22.40;;;;;;;;;;5029458;28;20021;-60
2023/04/21 02:27:31;;;;;;;39.65;20.67;;;;;;;;;;5029065;28;20024;-65
2023/04/21 02:29:56;;;;;;;51.25;23.05;;;;;;;;;;5029697;28;20026;-62
2023/04/21 02:32:21;;;;;;;42.80;20.60;;;;;;;;;;5029192;28;20028;-64
2023/04/21 02:34:47;;;;;;;40.40;21.15;;;;;;;;;;5029311;28;20029;-64
2023/04/21 02:37:12;;;;;;;43.97;20.23;;;;;;;;;;5029333;28;20025;-65
2023/04/21 02:39:37;;;;;;;39.05;20.42;;;;;;;;;;5029369;28;20032;-62
2023/04/21 02:42:03;;;;;;;40.00;20.08;;;;;;;;;;5038870;28;20040;-65
2023/04/21 02:44:28;;;;;;;40.40;19.05;;;;;;;;;;5036522;28;20025;-65
2023/04/21 02:46:53;;;;;;;41.55;19.33;;;;;;;;;;5038231;28;20017;-65
2023/04/21 02:49:18;;;;;;;38.97;19.92;;;;;;;;;;5029457;28;20017;-65
2023/04/21 02:51:43;;;;;;;37.60;18.30;;;;;;;;;;5022973;28;20491;-64
2023/04/21 02:54:09;;;;;;;38.85;18.65;;;;;;;;;;5029295;28;20029;-64
2023/04/21 02:56:35;;;;;;;33.63;17.40;;;;;;;;;;5036246;28;20053;-64
2023/04/21 02:59:00;;;;;;;43.60;19.10;;;;;;;;;;5028948;28;20112;-65
2023/04/21 03:01:25;;;;;;;44.70;18.98;;;;;;;;;;5028552;28;20508;-64
2023/04/21 03:03:50;;;;;;;46.47;18.63;;;;;;;;;;5028915;28;20030;-63
2023/04/21 03:06:16;;;;;;;36.58;17.92;;;;;;;;;;5029545;28;20021;-61
2023/04/21 03:08:41;;;;;;;36.20;17.58;;;;;;;;;;5029378;28;20018;-65
2023/04/21 03:11:06;;;;;;;36.22;16.15;;;;;;;;;;5029064;28;20116;-65
2023/04/21 03:13:31;;;;;;;42.67;17.80;;;;;;;;;;5032044;28;20025;-65
2023/04/21 03:15:57;;;;;;;41.75;17.52;;;;;;;;;;5033013;28;20029;-65
2023/04/21 03:18:22;;;;;;;47.08;19.17;;;;;;;;;;5031665;28;20540;-65
2023/04/21 03:20:47;;;;;;;33.90;17.33;;;;;;;;;;5032741;28;20032;-64
2023/04/21 03:23:12;;;;;;;38.95;17.55;;;;;;;;;;5032677;28;20028;-62
2023/04/21 03:25:38;;;;;;;37.17;16.58;;;;;;;;;;5032561;28;20025;-64
2023/04/21 03:28:03;;;;;;;35.35;17.13;;;;;;;;;;5032929;28;20056;-63
2023/04/21 03:30:28;;;;;;;39.65;17.98;;;;;;;;;;5018467;28;20113;-66
2023/04/21 03:32:54;;;;;;;36.65;17.83;;;;;;;;;;5033487;28;20102;-64
2023/04/21 03:35:20;;;;;;;44.50;18.15;;;;;;;;;;5032330;28;20021;-64
2023/04/21 03:37:45;;;;;;;40.40;16.40;;;;;;;;;;5032976;28;20025;-61
2023/04/21 03:40:10;;;;;;;36.08;17.67;;;;;;;;;;5031204;28;20033;-64
2023/04/21 03:42:35;;;;;;;41.17;16.40;;;;;;;;;;5041009;28;20030;-63
2023/04/21 03:45:04;;;;;;;37.30;18.08;;;;;;;;;;5039483;28;20048;-65
2023/04/21 03:47:30;;;;;;;43.17;17.67;;;;;;;;;;5040078;28;20479;-66
2023/04/21 03:49:55;;;;;;;37.85;17.00;;;;;;;;;;5030273;28;20156;-64
2023/04/21 03:52:20;;;;;;;47.25;16.50;;;;;;;;;;5028405;28;20541;-64
2023/04/21 03:54:45;;;;;;;30.27;16.95;;;;;;;;;;5031987;28;20025;-63
2023/04/21 03:57:11;;;;;;;38.25;17.40;;;;;;;;;;5032696;28;20028;-64
2023/04/21 03:59:36;;;;;;;30.30;16.63;;;;;;;;;;5031881;28;20037;-67
2023/04/21 04:02:01;;;;;;;34.78;16.08;;;;;;;;;;5032138;28;20087;-61
2023/04/21 04:04:26;;;;;;;32.67;15.68;;;;;;;;;;5031720;28;20029;-65
2023/04/21 04:06:52;;;;;;;43.72;16.85;;;;;;;;;;5031956;28;20017;-62
2023/04/21 04:09:17;;;;;;;40.70;16.70;;;;;;;;;;5030340;28;20017;-63
2023/04/21 04:11:42;;;;;;;31.95;17.77;;;;;;;;;;5027018;28;20468;-64
2023/04/21 04:14:07;;;;;;;36.28;16.35;;;;;;;;;;5023038;28;20670;-63
2023/04/21 04:16:33;;;;;;;25.45;14.50;;;;;;;;;;5030741;28;20037;-61
2023/04/21 04:18:59;;;;;;;37.53;16.67;;;;;;;;;;5032157;28;20033;-65
2023/04/21 04:21:24;;;;;;;32.47;16.90;;;;;;;;;;5032175;28;20052;-67
2023/04/21 04:23:52;;;;;;;40.83;18.77;;;;;;;;;;5031527;28;20499;-65
2023/04/21 04:26:18;;;;;;;30.65;15.02;;;;;;;;;;5018647;28;20013;-66
2023/04/21 04:28:43;;;;;;;32.35;16.08;;;;;;;;;;5025355;28;20068;-66
2023/04/21 04:31:09;;;;;;;38.17;16.10;;;;;;;;;;5023237;28;20021;-66
2023/04/21 04:33:35;;;;;;;28.13;13.75;;;;;;;;;;5030062;28;20144;-65
2023/04/21 04:36:00;;;;;;;31.55;15.02;;;;;;;;;;5031142;28;20030;-62
2023/04/21 04:38:27;;;;;;;40.88;15.82;;;;;;;;;;5031589;28;20036;-64
2023/04/21 04:40:56;;;;;;;40.47;14.93;;;;;;;;;;5029758;28;20021;-62
2023/04/21 04:43:21;;;;;;;37.05;14.38;;;;;;;;;;5033054;28;20021;-66
2023/04/21 04:45:47;;;;;;;41.53;15.25;;;;;;;;;;5029384;28;20383;-65
2023/04/21 04:48:12;;;;;;;34.65;15.45;;;;;;;;;;5029915;28;20021;-62
2023/04/21 04:50:37;;;;;;;29.60;15.48;;;;;;;;;;5024787;28;20026;-65
2023/04/21 04:53:03;;;;;;;32.63;15.18;;;;;;;;;;5031263;28;20364;-63
2023/04/21 04:55:28;;;;;;;28.58;14.57;;;;;;;;;;5017361;28;20490;-65
2023/04/21 04:57:53;;;;;;;28.67;15.00;;;;;;;;;;5013334;28;20022;-65
2023/04/21 05:00:18;;;;;;;30.20;14.27;;;;;;;;;;5022037;28;20021;-65
2023/04/21 05:02:44;;;;;;;34.92;15.85;;;;;;;;;;5036740;28;20475;-65
2023/04/21 05:05:09;;;;;;;35.03;15.23;;;;;;;;;;5025050;28;20013;-63
2023/04/21 05:07:34;;;;;;;37.40;15.30;;;;;;;;;;5030965;28;20017;-64
2023/04/21 05:10:00;;;;;;;35.15;15.60;;;;;;;;;;5029094;28;20022;-64
2023/04/21 05:12:25;;;;;;;36.78;16.23;;;;;;;;;;5031129;28;20017;-64
2023/04/21 05:14:50;;;;;;;28.63;14.20;;;;;;;;;;5030090;28;20383;-66
2023/04/21 05:17:15;;;;;;;32.20;14.68;;;;;;;;;;5025471;28;20116;-65
2023/04/21 05:19:40;;;;;;;30.50;14.70;;;;;;;;;;5029858;28;20027;-64
2023/04/21 05:22:06;;;;;;;31.15;13.60;;;;;;;;;;5030130;28;20147;-65
2023/04/21 05:24:32;;;;;;;26.77;12.98;;;;;;;;;;5020586;28;20026;-65
2023/04/21 05:26:57;;;;;;;28.48;13.50;;;;;;;;;;5017945;28;20018;-65
2023/04/21 05:29:22;;;;;;;30.27;12.75;;;;;;;;;;5024056;28;20013;-66
2023/04/21 05:31:47;;;;;;;28.27;13.35;;;;;;;;;;5015721;28;20018;-66
2023/04/21 05:34:13;;;;;;;39.80;13.45;;;;;;;;;;5024730;28;20052;-65
2023/04/21 05:36:40;;;;;;;27.48;11.82;;;;;;;;;;5024168;28;20029;-62
2023/04/21 05:39:06;;;;;;;29.13;13.40;;;;;;;;;;5012308;28;20033;-66
2023/04/21 05:43:58;;;;;;;35.40;12.13;;;;;;;;;;5024748;28;20038;-70
2023/04/21 05:46:24;;;;;;;32.10;12.18;;;;;;;;;;5027202;28;20074;-69
2023/04/21 05:48:49;;;;;;;29.65;12.73;;;;;;;;;;5025883;28;20018;-66
2023/04/21 05:51:14;;;;;;;31.92;13.13;;;;;;;;;;5023989;28;20070;-69
2023/04/21 05:53:40;;;;;;;26.08;11.27;;;;;;;;;;5020542;28;20164;-68
2023/04/21 05:56:07;;;;;;;36.22;12.95;;;;;;;;;;5016483;28;20022;-70
2023/04/21 05:58:32;;;;;;;21.42;11.95;;;;;;;;;;5020670;28;20564;-71
2023/04/21 06:00:58;;;;;;;28.13;13.25;;;;;;;;;;5016342;28;20056;-70
2023/04/21 06:03:23;;;;;;;35.65;12.13;;;;;;;;;;5015487;28;20105;-70
2023/04/21 06:05:52;;;;;;;29.15;12.45;;;;;;;;;;5012209;28;20032;-66
2023/04/21 06:08:17;;;;;;;26.33;11.80;;;;;;;;;;5021395;28;20091;-70
2023/04/21 06:10:42;;;;;;;27.85;11.57;;;;;;;;;;5021772;28;20467;-71
2023/04/21 06:13:11;;;;;;;30.38;12.80;;;;;;;;;;5002660;28;20524;-71
2023/04/21 06:15:36;;;;;;;29.58;10.90;;;;;;;;;;5011885;28;20021;-70
2023/04/21 06:18:01;;;;;;;31.58;10.88;;;;;;;;;;5009118;28;20404;-69
2023/04/21 06:20:27;;;;;;;26.90;11.32;;;;;;;;;;5009270;28;20026;-69
2023/04/21 06:22:52;;;;;;;24.73;11.15;;;;;;;;;;5021678;28;20028;-72
2023/04/21 06:25:18;;;;;;;30.90;11.07;;;;;;;;;;5008177;28;20053;-66
2023/04/21 06:27:44;;;;;;;18.67;10.77;;;;;;;;;;5009104;28;20026;-69
2023/04/21 06:30:10;;;;;;;25.88;10.95;;;;;;;;;;5020288;28;20185;-71
2023/04/21 06:32:35;;;;;;;25.88;10.80;;;;;;;;;;5008581;28;20348;-71
2023/04/21 06:35:00;;;;;;;44.38;11.95;;;;;;;;;;5008266;28;20368;-70
2023/04/21 06:37:26;;;;;;;32.25;10.35;;;;;;;;;;5008460;28;20178;-70
2023/04/21 06:39:51;;;;;;;39.63;10.85;;;;;;;;;;5009940;28;20022;-68
2023/04/21 06:42:16;;;;;;;25.95;10.82;;;;;;;;;;5013099;28;20391;-71
2023/04/21 06:44:41;;;;;;;27.02;10.57;;;;;;;;;;5001146;28;20035;-70
2023/04/21 06:47:07;;;;;;;23.75;10.63;;;;;;;;;;5014083;28;20029;-72
2023/04/21 06:49:33;;;;;;;22.10;9.70;;;;;;;;;;5012721;28;20033;-70
2023/04/21 06:51:58;;;;;;;36.03;9.77;;;;;;;;;;5013272;28;20099;-68
2023/04/21 06:54:23;;;;;;;22.10;9.98;;;;;;;;;;5017548;28;20026;-71
2023/04/21 06:56:50;;;;;;;25.85;10.65;;;;;;;;;;5013004;28;20402;-71
2023/04/21 06:59:15;;;;;;;27.88;9.70;;;;;;;;;;5012006;28;20025;-71
2023/04/21 07:01:40;;;;;;;22.50;10.48;;;;;;;;;;5018134;28;20050;-72
2023/04/21 07:04:05;;;;;;;25.38;9.23;;;;;;;;;;5014278;28;20097;-73
2023/04/21 07:06:31;;;;;;;22.63;9.43;;;;;;;;;;5012296;28;20029;-73
2023/04/21 07:08:56;;;;;;;22.25;8.57;;;;;;;;;;5011880;28;20153;-69
2023/04/21 07:11:21;;;;;;;25.73;10.30;;;;;;;;;;5023254;28;20032;-71
2023/04/21 07:13:47;;;;;;;18.73;8.93;;;;;;;;;;5018965;28;20076;-68
2023/04/21 07:16:12;;;;;;;23.10;9.18;;;;;;;;;;5017386;28;20083;-71
2023/04/21 07:18:38;;;;;;;22.33;8.18;;;;;;;;;;5012137;28;20018;-70
2023/04/21 07:21:03;;;;;;;24.13;9.40;;;;;;;;;;5019165;28;20153;-71
2023/04/21 07:23:29;;;;;;;23.15;7.30;;;;;;;;;;5011977;28;20108;-70
2023/04/21 07:25:54;;;;;;;25.70;8.75;;;;;;;;;;5012075;28;20824;-73
2023/04/21 07:28:19;;;;;;;20.92;8.10;;;;;;;;;;5011433;28;20018;-72
2023/04/21 07:30:44;;;;;;;23.25;8.15;;;;;;;;;;5002304;28;20175;-68
2023/04/21 07:33:10;;;;;;;22.42;7.95;;;;;;;;;;5011884;28;20018;-65
2023/04/21 07:35:35;;;;;;;19.00;7.97;;;;;;;;;;5018604;28;20099;-66
2023/04/21 07:38:00;;;;;;;23.17;7.68;;;;;;;;;;5012629;28;20030;-69
2023/04/21 07:40:25;;;;;;;20.45;8.00;;;;;;;;;;5011045;28;20041;-67
2023/04/21 07:42:50;;;;;;;20.98;8.27;;;;;;;;;;5010916;28;20036;-69
2023/04/21 07:45:16;;;;;;;19.23;7.22;;;;;;;;;;5013540;28;20059;-67
2023/04/21 07:47:42;;;;;;;17.88;7.13;;;;;;;;;;5014737;28;20033;-69
2023/04/21 07:50:07;;;;;;;25.73;7.07;;;;;;;;;;5012164;28;20606;-69
2023/04/21 07:52:33;;;;;;;23.17;7.35;;;;;;;;;;5010398;28;20021;-69
2023/04/21 07:54:58;;;;;;;20.80;7.78;;;;;;;;;;5010553;28;20030;-70
2023/04/21 07:57:24;;;;;;;15.38;7.65;;;;;;;;;;5010891;28;20068;-68
2023/04/21 07:59:49;;;;;;;21.58;7.20;;;;;;;;;;5010578;28;20424;-68
2023/04/21 08:02:15;;;;;;;20.02;7.38;;;;;;;;;;5011899;28;20033;-69
2023/04/21 08:04:40;;;;;;;19.50;7.47;;;;;;;;;;5019600;28;20104;-69
2023/04/21 08:07:05;;;;;;;23.48;6.72;;;;;;;;;;5024703;28;20030;-69
2023/04/21 08:09:31;;;;;;;26.30;7.55;;;;;;;;;;5010923;28;20026;-69
2023/04/21 08:11:56;;;;;;;18.45;6.88;;;;;;;;;;5010983;28;20131;-69
2023/04/21 08:14:22;;;;;;;24.20;6.78;;;;;;;;;;5018418;28;20065;-68
2023/04/21 08:16:47;;;;;;;15.70;5.57;;;;;;;;;;5011721;28;20026;-70
2023/04/21 08:19:13;;;;;;;14.32;7.15;;;;;;;;;;5022625;28;20124;-69
2023/04/21 08:21:38;;;;;;;22.75;5.90;;;;;;;;;;5014871;28;20079;-70
2023/04/21 08:24:03;;;;;;;17.23;6.20;;;;;;;;;;5003203;28;20030;-68
2023/04/21 08:26:29;;;;;;;18.50;5.88;;;;;;;;;;5025619;28;20158;-69
2023/04/21 08:28:54;;;;;;;15.95;6.72;;;;;;;;;;5011778;28;20014;-69
2023/04/21 08:31:20;;;;;;;14.32;6.22;;;;;;;;;;5012152;28;20448;-70
2023/04/21 08:33:45;;;;;;;19.83;6.10;;;;;;;;;;5010947;28;20511;-66
2023/04/21 08:36:10;;;;;;;20.38;5.97;;;;;;;;;;5014982;28;20036;-68
2023/04/21 08:38:36;;;;;;;17.20;6.30;;;;;;;;;;5013521;28;20101;-68
2023/04/21 08:41:02;;;;;;;14.55;5.60;;;;;;;;;;5011823;28;20065;-67
2023/04/21 08:43:28;;;;;;;12.13;6.13;;;;;;;;;;5021154;28;20165;-70
2023/04/21 08:45:53;;;;;;;20.60;5.53;;;;;;;;;;5012818;28;20025;-66
2023/04/21 08:48:20;;;;;;;17.38;6.47;;;;;;;;;;5012136;28;20526;-71
2023/04/21 08:50:47;;;;;;;17.83;5.35;;;;;;;;;;5011945;28;20103;-66
2023/04/21 08:53:12;;;;;;;17.83;5.60;;;;;;;;;;5012569;28;20040;-69
2023/04/21 08:55:38;;;;;;;14.35;5.25;;;;;;;;;;5013643;28;20025;-70
2023/04/21 08:58:05;;;;;;;14.45;5.28;;;;;;;;;;5019225;28;20048;-68
2023/04/21 09:00:30;;;;;;;18.67;4.68;;;;;;;;;;5009150;28;20018;-69
2023/04/21 09:02:56;;;;;;;14.50;4.88;;;;;;;;;;5009364;28;20093;-68
2023/04/21 09:05:26;;;;;;;11.80;4.40;;;;;;;;;;5005315;28;20058;-68
2023/04/21 09:07:52;;;;;;;15.13;6.15;;;;;;;;;;5004846;28;20199;-70
2023/04/21 09:10:21;;;;;;;17.13;5.55;;;;;;;;;;5008902;28;20074;-71
2023/04/21 09:12:46;;;;;;;;;;;;;;;;;;5010290;28;20022;-69
2023/04/21 09:15:11;;;;;;;17.25;4.63;;;;;;;;;;5009292;28;20008;-70
2023/04/21 09:17:37;;;;;;;12.90;4.40;;;;;;;;;;5019310;28;20494;-69
2023/04/21 09:20:12;;;;;;;18.70;5.00;;;;;;;;;;5013457;28;20092;-66
2023/04/21 09:22:37;;;;;;;10.27;4.43;;;;;;;;;;5011020;28;20033;-69
2023/04/21 09:25:02;;;;;;;15.20;4.30;;;;;;;;;;5009164;28;20383;-69
2023/04/21 09:27:28;;;;;;;14.38;4.32;;;;;;;;;;5014297;28;20013;-68
2023/04/21 09:29:54;;;;;;;18.02;4.15;;;;;;;;;;5014337;28;20022;-68
2023/04/21 09:32:19;;;;;;;12.70;4.10;;;;;;;;;;5009436;28;20032;-69
2023/04/21 09:34:45;;;;;;;14.77;4.30;;;;;;;;;;4996054;28;20466;-69
2023/04/21 09:37:11;;;;;;;15.45;4.75;;;;;;;;;;5008860;28;20572;-71
2023/04/21 09:39:37;;;;;;;15.07;4.43;;;;;;;;;;5009011;28;20037;-66
2023/04/21 09:42:02;;;;;;;11.68;3.92;;;;;;;;;;5008936;28;20635;-70
2023/04/21 09:44:27;;;;;;;17.58;3.83;;;;;;;;;;5007830;28;20032;-70
2023/04/21 09:46:57;;;;;;;20.60;4.38;;;;;;;;;;5009059;28;20101;-66
2023/04/21 09:49:24;;;;;;;11.40;3.60;;;;;;;;;;5017032;28;20108;-69
2023/04/21 09:51:50;;;;;;;11.65;3.72;;;;;;;;;;5009102;28;20407;-68
2023/04/21 09:54:16;;;;;;;8.75;3.80;;;;;;;;;;5008433;28;20050;-71
2023/04/21 09:56:42;;;;;;;13.18;3.30;;;;;;;;;;5009645;28;20113;-70
2023/04/21 09:59:11;;;;;;;9.98;3.22;;;;;;;;;;5012859;28;20037;-72
2023/04/21 10:01:37;;;;;;;16.10;3.50;;;;;;;;;;5009167;28;20030;-70
2023/04/21 10:04:03;;;;;;;8.85;3.60;;;;;;;;;;5008366;28;20093;-70
2023/04/21 10:06:28;;;;;;;11.63;3.95;;;;;;;;;;4993854;28;20504;-70
2023/04/21 10:08:56;;;;;;;14.57;5.10;;;;;;;;;;4999851;28;20468;-70
2023/04/21 10:11:22;;;;;;;11.98;3.97;;;;;;;;;;5012673;28;20032;-72
2023/04/21 10:13:48;;;;;;;12.48;3.67;;;;;;;;;;5010687;28;20154;-70
2023/04/21 10:16:15;;;;;;;14.63;3.63;;;;;;;;;;5016928;28;20073;-69
2023/04/21 10:18:45;;;;;;;14.45;3.70;;;;;;;;;;5010732;28;20097;-69
2023/04/21 10:21:11;;;;;;;15.55;3.72;;;;;;;;;;5008633;28;20123;-70
2023/04/21 10:23:37;;;;;;;10.85;3.28;;;;;;;;;;5009179;28;20029;-70
2023/04/21 10:26:08;;;;;;;12.10;3.78;;;;;;;;;;5012187;28;20371;-69
2023/04/21 10:28:40;;;;;;;11.32;3.15;;;;;;;;;;5019433;28;20021;-68
2023/04/21 10:31:19;;;;;;;11.43;3.20;;;;;;;;;;5019183;28;20029;-70
2023/04/21 10:33:44;;;;;;;;;;;;;;;;;;5014420;28;20345;-71
2023/04/21 10:36:10;;;;;;;14.20;3.42;;;;;;;;;;5007949;28;19933;-71
2023/04/21 10:38:40;;;;;;;14.02;4.25;;;;;;;;;;5003833;28;20033;-68
2023/04/21 10:41:24;;;;;;;14.27;4.03;;;;;;;;;;5004481;28;20026;-70
2023/04/21 10:43:50;;;;;;;12.25;3.00;;;;;;;;;;5005659;28;20541;-71
2023/04/21 10:46:35;;;;;;;13.25;3.42;;;;;;;;;;5006607;28;20049;-71
2023/04/21 10:49:09;;;;;;;14.23;3.60;;;;;;;;;;5006067;28;20491;-70
2023/04/21 10:51:54;;;;;;;16.15;3.40;;;;;;;;;;5006084;28;20021;-70
2023/04/21 10:54:24;;;;;;;9.45;2.85;;;;;;;;;;4999864;28;20026;-68
2023/04/21 10:56:50;;;;;;;12.48;2.97;;;;;;;;;;4995864;28;20030;-72
2023/04/21 10:59:17;;;;;;;17.20;3.08;;;;;;;;;;5021574;28;20032;-71
2023/04/21 11:01:42;;;;;;;7.80;3.33;;;;;;;;;;5006255;28;20088;-71
2023/04/21 11:04:12;;;;;;;14.85;3.35;;;;;;;;;;5005120;28;20029;-69
2023/04/21 11:06:38;;;;;;;12.25;3.53;;;;;;;;;;5004610;28;20071;-68
2023/04/21 11:09:03;;;;;;;11.35;3.28;;;;;;;;;;5012731;28;20152;-72
2023/04/21 11:11:28;;;;;;;11.00;2.90;;;;;;;;;;5011907;28;20048;-68
2023/04/21 11:13:53;;;;;;;17.00;3.17;;;;;;;;;;5017553;28;20069;-69
2023/04/21 11:16:19;;;;;;;7.78;2.45;;;;;;;;;;5008593;28;20224;-69
2023/04/21 11:18:44;;;;;;;15.32;2.67;;;;;;;;;;5008114;28;20096;-71
2023/04/21 11:21:17;;;;;;;13.30;3.10;;;;;;;;;;5008183;28;20364;-71
2023/04/21 11:23:55;;;;;;;10.80;2.90;;;;;;;;;;5014096;28;20043;-69
2023/04/21 11:26:38;;;;;;;14.23;3.38;;;;;;;;;;5014506;28;20125;-68
2023/04/21 11:29:07;;;;;;;5.70;2.63;;;;;;;;;;5016551;28;20029;-69
2023/04/21 11:31:33;;;;;;;12.38;2.83;;;;;;;;;;5011773;28;20025;-67
2023/04/21 11:33:59;;;;;;;8.77;3.00;;;;;;;;;;5013583;28;20088;-71
2023/04/21 11:36:26;;;;;;;14.77;2.80;;;;;;;;;;5011265;28;20030;-68
2023/04/21 11:38:51;;;;;;;9.20;3.42;;;;;;;;;;5012197;28;20052;-71
2023/04/21 11:41:23;;;;;;;11.23;3.15;;;;;;;;;;5012281;28;20034;-70
2023/04/21 11:43:49;;;;;;;9.70;2.67;;;;;;;;;;5032922;22;20108;-65
2023/04/21 11:46:24;;;;;;;11.02;2.60;;;;;;;;;;5017669;28;20506;-64
2023/04/21 11:49:00;;;;;;;9.98;2.83;;;;;;;;;;5007011;28;20077;-63
2023/04/21 11:51:26;;;;;;;16.98;3.15;;;;;;;;;;5012510;28;20480;-65
2023/04/21 11:53:52;;;;;;;10.45;2.90;;;;;;;;;;5021855;28;20091;-67
2023/04/21 11:56:20;;;;;;;13.95;3.40;;;;;;;;;;5015992;28;20645;-66
2023/04/21 11:58:45;;;;;;;18.73;3.10;;;;;;;;;;5023612;28;20097;-66
2023/04/21 12:01:14;;;;;;;7.63;2.70;;;;;;;;;;5012358;28;20112;-66
2023/04/21 12:03:39;;;;;;;14.00;3.17;;;;;;;;;;5016687;28;20157;-64
2023/04/21 12:06:06;;;;;;;14.45;3.05;;;;;;;;;;5012192;28;20595;-65
2023/04/21 12:08:31;;;;;;;12.40;3.08;;;;;;;;;;5016572;28;20092;-66
2023/04/21 12:10:58;;;;;;;8.30;2.88;;;;;;;;;;5012628;28;20617;-66
2023/04/21 12:13:23;;;;;;;8.35;2.78;;;;;;;;;;5013550;28;20016;-64
2023/04/21 12:15:49;;;;;;;7.68;2.58;;;;;;;;;;5012081;28;20141;-65
2023/04/21 12:18:14;;;;;;;10.70;3.17;;;;;;;;;;5014626;28;20025;-64
2023/04/21 12:20:47;;;;;;;18.48;3.13;;;;;;;;;;5015140;28;20030;-63
2023/04/21 12:23:13;;;;;;;14.07;3.63;;;;;;;;;;5013621;28;20076;-63
2023/04/21 12:25:38;;;;;;;12.02;2.58;;;;;;;;;;5017048;28;20033;-63
2023/04/21 12:28:06;;;;;;;5.30;2.40;;;;;;;;;;5015453;28;20021;-66
2023/04/21 12:30:31;;;;;;;9.02;2.45;;;;;;;;;;5011841;28;20040;-65
2023/04/21 12:32:57;;;;;;;8.98;2.92;;;;;;;;;;5014396;28;20467;-63
2023/04/21 12:35:22;;;;;;;15.80;2.65;;;;;;;;;;5012121;28;20022;-65
2023/04/21 12:37:47;;;;;;;6.05;2.67;;;;;;;;;;5011756;28;20057;-65
2023/04/21 12:40:13;;;;;;;9.93;3.58;;;;;;;;;;5013018;28;20025;-64
2023/04/21 12:42:38;;;;;;;8.80;3.08;;;;;;;;;;5011209;28;20952;-63
2023/04/21 12:45:04;;;;;;;10.45;3.70;;;;;;;;;;5010207;28;20026;-65
2023/04/21 12:47:29;;;;;;;19.00;3.70;;;;;;;;;;5009737;28;20022;-64
2023/04/21 12:49:56;;;;;;;15.60;2.70;;;;;;;;;;5012109;28;20026;-63
2023/04/21 12:52:21;;;;;;;14.65;2.80;;;;;;;;;;5015865;28;20048;-65
2023/04/21 12:54:46;;;;;;;9.75;2.85;;;;;;;;;;5012115;28;20045;-65
2023/04/21 12:57:12;;;;;;;11.93;2.88;;;;;;;;;;5015228;28;20026;-66
2023/04/21 12:59:37;;;;;;;7.72;2.80;;;;;;;;;;5011487;28;20061;-69
2023/04/21 13:02:03;;;;;;;10.07;2.53;;;;;;;;;;5014369;28;20523;-64
2023/04/21 13:04:28;;;;;;;25.00;6.00;;;;;;;;;;5010161;28;20026;-65
2023/04/21 13:06:53;;;;;;;13.90;2.85;;;;;;;;;;5010731;28;20033;-64
2023/04/21 13:09:18;;;;;;;9.23;3.10;;;;;;;;;;5010980;28;20030;-64
2023/04/21 13:11:44;;;;;;;11.20;2.78;;;;;;;;;;5011522;28;20026;-64
2023/04/21 13:14:09;;;;;;;11.63;2.90;;;;;;;;;;5010422;28;20029;-65
2023/04/21 13:16:35;;;;;;;14.10;3.78;;;;;;;;;;5017590;28;20022;-64
2023/04/21 13:19:00;;;;;;;16.23;3.35;;;;;;;;;;5010697;28;20029;-65
2023/04/21 13:21:26;;;;;;;13.57;2.88;;;;;;;;;;5010239;28;20033;-65
2023/04/21 13:23:52;;;;;;;11.35;2.63;;;;;;;;;;5008940;28;20093;-65
2023/04/21 13:26:17;;;;;;;9.07;2.33;;;;;;;;;;5010236;28;20444;-64
2023/04/21 13:28:45;;;;;;;13.73;3.20;;;;;;;;;;5018072;28;20028;-67
2023/04/21 13:31:10;;;;;;;14.35;2.90;;;;;;;;;;5012661;28;20033;-63
2023/04/21 13:33:36;;;;;;;10.27;2.80;;;;;;;;;;5009331;28;20027;-62
2023/04/21 13:36:02;;;;;;;8.35;2.50;;;;;;;;;;5016784;28;20072;-66
2023/04/21 13:38:27;;;;;;;7.80;2.30;;;;;;;;;;5021364;28;20013;-66
2023/04/21 13:40:52;;;;;;;8.50;2.50;;;;;;;;;;5007206;28;20071;-64
2023/04/21 13:43:18;;;;;;;13.50;3.03;;;;;;;;;;5016056;28;20156;-66
2023/04/21 13:45:44;;;;;;;11.52;2.58;;;;;;;;;;5014130;28;20073;-64
2023/04/21 13:48:10;;;;;;;20.85;4.60;;;;;;;;;;5010591;28;20064;-63
2023/04/21 13:50:35;;;;;;;7.10;2.65;;;;;;;;;;5012954;28;20081;-64
2023/04/21 13:53:00;;;;;;;9.95;2.70;;;;;;;;;;5008981;28;20026;-65
2023/04/21 13:55:26;;;;;;;7.32;2.05;;;;;;;;;;5008635;28;20109;-65
2023/04/21 13:57:51;;;;;;;11.45;2.70;;;;;;;;;;5010349;28;20030;-66
2023/04/21 14:00:16;;;;;;;17.55;2.53;;;;;;;;;;5012855;28;20096;-66
2023/04/21 14:02:42;;;;;;;10.07;2.58;;;;;;;;;;5005275;28;20109;-66
2023/04/21 14:05:07;;;;;;;10.00;2.78;;;;;;;;;;5010988;28;20025;-65
2023/04/21 14:07:34;;;;;;;13.65;2.60;;;;;;;;;;5009381;28;20026;-65
2023/04/21 14:09:59;;;;;;;12.95;3.08;;;;;;;;;;5012596;28;20028;-64
2023/04/21 14:12:25;;;;;;;8.95;2.45;;;;;;;;;;5011445;28;20382;-66
2023/04/21 14:14:50;;;;;;;5.55;2.22;;;;;;;;;;5009279;28;20025;-64
2023/04/21 14:17:15;;;;;;;8.80;2.15;;;;;;;;;;5009508;28;20033;-64
2023/04/21 14:19:41;;;;;;;14.40;2.30;;;;;;;;;;5011099;28;20018;-65
2023/04/21 14:22:06;;;;;;;7.13;2.33;;;;;;;;;;5015033;28;20669;-66